Time;durP1;ratioP1;P1;durP2;ratioP2;P2;SDS_P1;SDS_P2;PMS_P1;PMS_P2;Temp;Humidity;BMP_temperature;BMP_pressure;BME280_temperature;BME280_humidity;BME280_pressure;Samples;Min_cycle;Max_cycle;Signal;HPM_P1;HPM_P2
2023/05/18 04:30:26;;;;;;;10.60;5.03;;;12.50;64.40;;;;;;6065549;22;20106;-83
2023/05/18 04:32:53;;;;;;;11.90;5.13;;;12.50;64.50;;;;;;5005741;28;20042;-82
2023/05/18 04:35:18;;;;;;;11.05;5.13;;;12.50;63.70;;;;;;5010351;28;20041;-80
2023/05/18 04:37:44;;;;;;;14.10;5.10;;;12.50;64.10;;;;;;5011797;28;20041;-80
2023/05/18 04:40:15;;;;;;;11.38;5.10;;;12.50;64.40;;;;;;5012123;28;20516;-81
2023/05/18 04:42:44;;;;;;;10.38;4.57;;;12.50;64.50;;;;;;4996159;28;20026;-82
2023/05/18 04:45:15;;;;;;;12.27;4.53;;;12.50;64.30;;;;;;4992416;28;20037;-80
2023/05/18 04:47:41;;;;;;;7.32;4.72;;;12.50;64.50;;;;;;4992680;28;20109;-87
2023/05/18 04:50:07;;;;;;;9.05;4.43;;;12.50;64.60;;;;;;4990488;28;20023;-86
2023/05/18 04:52:35;;;;;;;6.55;4.07;;;12.50;64.40;;;;;;4992618;28;20035;-84
2023/05/18 04:55:01;;;;;;;10.23;4.38;;;12.50;64.50;;;;;;4975273;28;20057;-82
2023/05/18 04:57:27;;;;;;;8.45;4.13;;;12.50;63.80;;;;;;4992745;28;20031;-83
2023/05/18 04:59:53;;;;;;;12.90;4.53;;;12.60;63.30;;;;;;4974968;28;20089;-78
2023/05/18 05:02:19;;;;;;;8.55;4.43;;;12.60;63.20;;;;;;5005825;28;20033;-78
2023/05/18 05:04:45;;;;;;;11.57;4.70;;;12.60;63.30;;;;;;5023781;28;20026;-78
2023/05/18 05:07:11;;;;;;;6.93;4.35;;;12.60;63.50;;;;;;5019428;28;20037;-78
2023/05/18 05:09:36;;;;;;;8.02;4.25;;;12.60;63.70;;;;;;5006123;28;20485;-78
2023/05/18 05:12:02;;;;;;;11.77;5.13;;;12.60;63.50;;;;;;5016792;28;20164;-78
2023/05/18 05:14:28;;;;;;;9.48;4.18;;;12.60;63.90;;;;;;5023237;28;20029;-81
2023/05/18 05:16:54;;;;;;;9.43;4.65;;;12.70;63.70;;;;;;5017045;28;20081;-79
2023/05/18 05:19:19;;;;;;;9.25;4.53;;;12.70;63.70;;;;;;5019087;28;20018;-79
2023/05/18 05:21:45;;;;;;;7.07;4.15;;;12.70;63.60;;;;;;5011427;28;20064;-82
2023/05/18 05:24:11;;;;;;;9.25;3.90;;;12.70;63.70;;;;;;5015014;28;20034;-77
2023/05/18 05:26:36;;;;;;;6.35;3.90;;;12.70;63.90;;;;;;4999945;28;20030;-80
2023/05/18 05:29:02;;;;;;;10.80;4.75;;;12.80;63.50;;;;;;4981285;28;20022;-80
2023/05/18 05:31:28;;;;;;;9.60;3.50;;;12.80;63.90;;;;;;5017321;28;20416;-80
2023/05/18 05:33:53;;;;;;;6.38;3.88;;;12.80;63.90;;;;;;5009158;28;20022;-80
2023/05/18 05:36:19;;;;;;;9.52;4.15;;;12.80;63.50;;;;;;4987677;28;20029;-80
2023/05/18 05:38:44;;;;;;;9.38;3.90;;;12.80;63.30;;;;;;5017745;28;20030;-80
2023/05/18 05:41:10;;;;;;;7.57;3.78;;;12.80;63.70;;;;;;5005355;28;20022;-80
2023/05/18 05:43:36;;;;;;;11.10;4.55;;;12.90;62.90;;;;;;4981322;28;20027;-80
2023/05/18 05:46:01;;;;;;;10.25;3.80;;;12.90;64.10;;;;;;4998724;28;20041;-80
2023/05/18 05:48:27;;;;;;;8.82;4.13;;;12.90;64.60;;;;;;4998460;28;20089;-80
2023/05/18 05:50:53;;;;;;;8.75;3.80;;;12.90;65.10;;;;;;4999877;28;20038;-80
2023/05/18 05:53:19;;;;;;;8.75;3.80;;;12.90;64.90;;;;;;5004284;28;20024;-80
2023/05/18 05:55:45;;;;;;;9.93;4.38;;;13.00;64.40;;;;;;5018408;28;20084;-80
2023/05/18 05:58:10;;;;;;;6.30;3.10;;;13.10;64.40;;;;;;5018474;28;20030;-80
2023/05/18 06:00:36;;;;;;;8.10;3.67;;;13.10;64.60;;;;;;5011122;28;20031;-80
2023/05/18 06:03:02;;;;;;;7.95;3.95;;;13.10;64.00;;;;;;5004181;28;20485;-80
2023/05/18 06:05:28;;;;;;;10.25;4.18;;;13.20;64.40;;;;;;5018240;28;20061;-80
2023/05/18 06:07:54;;;;;;;8.95;4.00;;;13.30;64.30;;;;;;5018349;28;20037;-80
2023/05/18 06:10:20;;;;;;;6.63;3.55;;;13.30;64.40;;;;;;5003363;28;20033;-80
2023/05/18 06:12:46;;;;;;;8.98;4.18;;;13.30;64.40;;;;;;5037710;28;20022;-79
2023/05/18 06:15:11;;;;;;;7.60;4.00;;;13.40;63.90;;;;;;5019972;28;20032;-80
2023/05/18 06:17:37;;;;;;;6.68;4.05;;;13.40;64.40;;;;;;5014420;28;20034;-80
2023/05/18 06:20:07;;;;;;;9.55;4.05;;;13.50;64.10;;;;;;4998347;28;20023;-79
2023/05/18 06:22:33;;;;;;;4.93;3.30;;;13.60;63.80;;;;;;4997804;28;20037;-79
2023/05/18 06:24:58;;;;;;;7.82;4.03;;;13.70;63.00;;;;;;4998538;28;20787;-80
2023/05/18 06:27:24;;;;;;;10.80;3.75;;;13.80;62.80;;;;;;4997818;28;20444;-80
2023/05/18 06:29:51;;;;;;;6.88;3.65;;;13.80;63.30;;;;;;4996670;28;20026;-79
2023/05/18 06:32:17;;;;;;;8.82;3.78;;;13.90;63.00;;;;;;4999046;28;20058;-79
2023/05/18 06:34:44;;;;;;;5.70;3.50;;;14.00;62.90;;;;;;4999727;28;20022;-79
2023/05/18 06:37:10;;;;;;;6.32;3.85;;;14.10;62.60;;;;;;5013620;28;20025;-80
2023/05/18 06:39:36;;;;;;;5.82;2.97;;;14.20;62.70;;;;;;5012978;28;20488;-79
2023/05/18 06:42:02;;;;;;;9.23;3.80;;;14.30;62.50;;;;;;4996657;28;20041;-80
2023/05/18 06:44:27;;;;;;;9.75;3.35;;;14.40;62.60;;;;;;4980270;28;20034;-80
2023/05/18 06:46:53;;;;;;;5.88;3.58;;;14.50;62.20;;;;;;4997685;28;20036;-80
2023/05/18 06:49:19;;;;;;;8.98;3.90;;;14.60;62.40;;;;;;4997476;28;20018;-80
2023/05/18 06:51:44;;;;;;;7.88;3.50;;;14.70;61.60;;;;;;4980347;28;20027;-80
2023/05/18 06:54:10;;;;;;;6.10;3.38;;;14.80;61.50;;;;;;4997737;28;20393;-80
2023/05/18 06:56:36;;;;;;;6.75;2.97;;;14.80;60.70;;;;;;4997737;28;20037;-80
2023/05/18 06:59:02;;;;;;;9.55;3.08;;;14.90;60.80;;;;;;4997666;28;20118;-79
2023/05/18 07:01:27;;;;;;;6.80;3.28;;;15.00;60.50;;;;;;5010938;28;20526;-80
2023/05/18 07:03:53;;;;;;;7.47;3.03;;;15.20;59.60;;;;;;4999831;28;20026;-79
2023/05/18 07:06:19;;;;;;;6.45;3.47;;;15.40;60.70;;;;;;5017044;28;20076;-79
2023/05/18 07:08:46;;;;;;;8.75;3.15;;;15.50;59.90;;;;;;4998787;28;20022;-79
2023/05/18 07:11:11;;;;;;;10.18;3.33;;;15.70;59.20;;;;;;5027302;28;20544;-79
2023/05/18 07:13:37;;;;;;;5.72;3.10;;;15.80;58.70;;;;;;5036788;28;20060;-79
2023/05/18 07:16:02;;;;;;;6.95;2.90;;;16.00;58.90;;;;;;5036539;28;20033;-79
2023/05/18 07:18:28;;;;;;;6.55;2.95;;;16.10;58.10;;;;;;5004091;28;20863;-79
2023/05/18 07:20:54;;;;;;;6.78;3.17;;;16.30;57.60;;;;;;4997294;28;20109;-79
2023/05/18 07:23:20;;;;;;;8.23;3.30;;;16.70;56.90;;;;;;4997000;28;20034;-79
2023/05/18 07:25:45;;;;;;;7.60;3.45;;;17.00;56.30;;;;;;5012620;28;20923;-80
2023/05/18 07:28:11;;;;;;;8.85;3.47;;;17.50;54.90;;;;;;4996617;28;20026;-80
2023/05/18 07:30:36;;;;;;;6.57;2.88;;;17.90;54.00;;;;;;4996677;28;20054;-80
2023/05/18 07:33:03;;;;;;;7.32;3.08;;;18.30;52.80;;;;;;4988820;28;20036;-80
2023/05/18 07:35:28;;;;;;;6.40;3.30;;;19.00;51.80;;;;;;4997395;28;20094;-80
2023/05/18 07:37:54;;;;;;;5.10;3.00;;;19.50;50.30;;;;;;5016530;28;20493;-80
2023/05/18 07:40:20;;;;;;;8.07;3.42;;;20.00;49.10;;;;;;5016447;28;20026;-80
2023/05/18 07:42:46;;;;;;;7.03;3.15;;;20.20;48.20;;;;;;5011130;28;20080;-80
2023/05/18 07:45:11;;;;;;;6.65;3.05;;;20.30;48.00;;;;;;4996685;28;20033;-80
2023/05/18 07:47:37;;;;;;;7.82;3.45;;;20.30;47.70;;;;;;4997329;28;20061;-80
2023/05/18 07:50:03;;;;;;;6.35;3.05;;;20.80;47.30;;;;;;5014976;28;20026;-80
2023/05/18 07:52:29;;;;;;;6.15;3.13;;;21.10;46.40;;;;;;5004031;28;20033;-80
2023/05/18 07:54:58;;;;;;;8.45;2.92;;;21.80;45.10;;;;;;4998828;28;20090;-80
2023/05/18 07:57:24;;;;;;;6.10;3.10;;;22.50;44.00;;;;;;5016263;28;20046;-80
2023/05/18 07:59:50;;;;;;;7.78;3.30;;;22.80;43.10;;;;;;5016087;28;20758;-80
2023/05/18 08:02:18;;;;;;;7.72;2.80;;;23.00;42.70;;;;;;5003372;28;20432;-79
2023/05/18 08:04:44;;;;;;;7.35;2.97;;;23.20;42.10;;;;;;5010510;28;20145;-80
2023/05/18 08:07:11;;;;;;;9.82;2.90;;;23.20;41.50;;;;;;4996533;28;20022;-80
2023/05/18 08:09:37;;;;;;;7.65;3.47;;;23.20;41.70;;;;;;4996151;28;20080;-80
2023/05/18 08:12:03;;;;;;;5.38;2.58;;;23.70;39.90;;;;;;5013317;28;20025;-80
2023/05/18 08:14:29;;;;;;;8.25;3.20;;;24.10;40.60;;;;;;5035944;28;20112;-80
2023/05/18 08:16:55;;;;;;;7.47;3.10;;;24.80;39.90;;;;;;5014255;28;20061;-78
2023/05/18 08:19:20;;;;;;;6.63;2.85;;;25.00;39.10;;;;;;4996226;28;20088;-79
2023/05/18 08:21:46;;;;;;;8.70;3.42;;;25.10;38.90;;;;;;4996529;28;20026;-78
2023/05/18 08:24:11;;;;;;;6.35;3.10;;;25.20;38.50;;;;;;4996290;28;20034;-78
2023/05/18 08:26:37;;;;;;;6.40;3.20;;;25.20;38.40;;;;;;5010542;28;20381;-79
2023/05/18 08:29:08;;;;;;;6.38;3.53;;;25.00;38.50;;;;;;5015698;28;20088;-80
2023/05/18 08:31:39;;;;;;;8.52;3.33;;;24.90;38.20;;;;;;5015550;28;20563;-80
2023/05/18 08:34:05;;;;;;;5.35;3.00;;;24.80;38.90;;;;;;5013242;28;20025;-80
2023/05/18 08:36:33;;;;;;;8.80;3.10;;;24.80;39.00;;;;;;5005352;28;20022;-80
2023/05/18 08:38:59;;;;;;;7.85;3.47;;;24.90;39.10;;;;;;5015937;28;20048;-78
2023/05/18 08:41:49;;;;;;;5.80;3.10;;;25.10;38.60;;;;;;5015792;28;20032;-78
2023/05/18 08:44:25;;;;;;;5.45;3.13;;;25.50;38.40;;;;;;5009726;28;20089;-79
2023/05/18 08:46:50;;;;;;;6.80;3.22;;;25.70;38.10;;;;;;4998613;28;20081;-80
2023/05/18 08:49:19;;;;;;;5.05;2.88;;;25.80;38.00;;;;;;5000109;28;20027;-79
2023/05/18 08:51:53;;;;;;;7.88;3.40;;;25.80;37.60;;;;;;4999879;28;20129;-78
2023/05/18 08:54:21;;;;;;;9.32;3.35;;;25.80;37.40;;;;;;4999780;28;20134;-78
2023/05/18 08:56:47;;;;;;;8.48;3.08;;;25.60;36.90;;;;;;4999733;28;20022;-78
2023/05/18 08:59:17;;;;;;;6.35;3.03;;;25.40;37.70;;;;;;4994734;28;20023;-78
2023/05/18 09:01:43;;;;;;;7.22;3.55;;;25.30;37.80;;;;;;4999734;28;20026;-78
2023/05/18 09:04:09;;;;;;;7.60;2.92;;;25.10;38.00;;;;;;5013908;28;20057;-78
2023/05/18 09:06:36;;;;;;;6.15;2.97;;;24.80;38.10;;;;;;5001514;28;20034;-79
2023/05/18 09:09:05;;;;;;;7.10;3.30;;;24.50;38.20;;;;;;4994805;28;20030;-79
2023/05/18 09:11:32;;;;;;;8.32;3.15;;;24.40;38.70;;;;;;5025571;28;20384;-78
2023/05/18 09:13:59;;;;;;;8.05;2.78;;;24.40;37.50;;;;;;5039010;28;20022;-79
2023/05/18 09:16:25;;;;;;;9.15;3.30;;;24.60;37.80;;;;;;5020931;28;20059;-79
2023/05/18 09:18:50;;;;;;;5.55;3.10;;;24.80;37.40;;;;;;4998986;28;20049;-79
2023/05/18 09:21:16;;;;;;;5.22;2.88;;;25.10;36.60;;;;;;4999421;28;20022;-79
2023/05/18 09:23:42;;;;;;;7.80;2.97;;;25.40;35.70;;;;;;4999160;28;20038;-79
2023/05/18 09:26:09;;;;;;;5.53;3.10;;;25.70;36.50;;;;;;4997995;28;20034;-79
2023/05/18 09:28:39;;;;;;;8.63;3.05;;;25.90;36.20;;;;;;4999724;28;20045;-79
2023/05/18 09:31:07;;;;;;;7.57;3.40;;;26.00;35.60;;;;;;5000849;28;20408;-79
2023/05/18 09:33:38;;;;;;;4.72;2.78;;;26.20;35.80;;;;;;5008871;28;20045;-78
2023/05/18 09:36:05;;;;;;;9.13;3.67;;;26.10;34.70;;;;;;5004867;28;20018;-78
2023/05/18 09:38:36;;;;;;;5.65;3.17;;;26.20;34.30;;;;;;5017676;28;20042;-79
2023/05/18 09:41:03;;;;;;;6.93;3.13;;;26.40;34.20;;;;;;5001022;28;20034;-78
2023/05/18 09:43:28;;;;;;;7.60;3.50;;;26.70;34.00;;;;;;5000901;28;20091;-78
2023/05/18 09:45:54;;;;;;;8.15;4.00;;;26.80;32.10;;;;;;4999230;28;20109;-79
2023/05/18 09:48:21;;;;;;;5.95;3.35;;;26.90;31.30;;;;;;4981386;28;20125;-79
2023/05/18 09:50:48;;;;;;;5.90;3.30;;;27.00;31.20;;;;;;4998625;28;20045;-78
2023/05/18 09:53:14;;;;;;;6.07;2.92;;;27.00;31.60;;;;;;4981294;28;20031;-79
2023/05/18 09:55:48;;;;;;;5.40;3.03;;;26.80;30.30;;;;;;4998325;28;20385;-79
2023/05/18 09:58:14;;;;;;;7.45;3.17;;;26.20;31.70;;;;;;5009736;28;20022;-78
2023/05/18 10:00:50;;;;;;;7.55;3.40;;;25.80;31.90;;;;;;5012655;28;20026;-79
2023/05/18 10:03:23;;;;;;;8.85;3.47;;;25.70;32.90;;;;;;5017821;28;20109;-79
2023/05/18 10:05:49;;;;;;;7.80;3.15;;;25.60;32.60;;;;;;5007048;28;20516;-79
2023/05/18 10:08:16;;;;;;;7.93;3.90;;;25.60;33.20;;;;;;5016112;28;20032;-79
2023/05/18 10:10:46;;;;;;;6.70;3.05;;;25.70;33.20;;;;;;5010982;28;20018;-79
2023/05/18 10:13:14;;;;;;;6.88;3.50;;;25.90;33.10;;;;;;5015616;28;20405;-79
2023/05/18 10:15:47;;;;;;;6.40;3.42;;;26.20;32.50;;;;;;4998433;28;20049;-79
2023/05/18 10:18:20;;;;;;;7.38;3.42;;;26.40;32.50;;;;;;5009533;28;20027;-79
2023/05/18 10:20:47;;;;;;;7.75;3.40;;;26.70;32.00;;;;;;4981007;28;20023;-79
2023/05/18 10:23:13;;;;;;;7.90;3.45;;;26.60;31.40;;;;;;4998357;28;20089;-79
2023/05/18 10:25:43;;;;;;;8.30;3.90;;;26.50;32.00;;;;;;4998218;28;20026;-78
2023/05/18 10:28:10;;;;;;;7.32;3.30;;;26.30;31.70;;;;;;4998493;28;20030;-79
2023/05/18 10:30:39;;;;;;;6.38;3.22;;;26.10;32.60;;;;;;4996443;28;20133;-78
2023/05/18 10:33:06;;;;;;;10.03;3.40;;;25.90;32.80;;;;;;5010278;28;20075;-78
2023/05/18 10:35:32;;;;;;;7.55;3.78;;;25.80;33.50;;;;;;5017413;28;20026;-78
2023/05/18 10:37:59;;;;;;;9.20;3.30;;;25.70;33.40;;;;;;5003804;28;20026;-78
2023/05/18 10:40:27;;;;;;;6.07;3.05;;;25.60;34.10;;;;;;4998133;28;20018;-78
2023/05/18 10:42:56;;;;;;;7.88;3.38;;;25.40;34.30;;;;;;4997711;28;20711;-78
2023/05/18 10:45:22;;;;;;;7.72;3.50;;;25.30;34.90;;;;;;4997859;28;20022;-78
2023/05/18 10:47:52;;;;;;;8.98;3.40;;;25.20;34.60;;;;;;4997508;28;20072;-79
2023/05/18 10:50:21;;;;;;;12.77;4.18;;;25.00;34.60;;;;;;5017174;28;20026;-78
2023/05/18 10:52:47;;;;;;;6.90;3.63;;;24.80;35.30;;;;;;4999525;28;20029;-78
2023/05/18 10:55:14;;;;;;;10.48;4.18;;;24.80;35.40;;;;;;4984543;28;20114;-78
2023/05/18 10:57:46;;;;;;;6.40;3.00;;;24.70;35.10;;;;;;4980269;28;20077;-78
2023/05/18 11:00:13;;;;;;;6.55;3.20;;;24.70;35.60;;;;;;4997706;28;20396;-78
2023/05/18 11:02:41;;;;;;;10.50;3.55;;;24.50;36.30;;;;;;4990292;28;20469;-78
2023/05/18 11:05:08;;;;;;;7.50;3.00;;;24.50;36.40;;;;;;4999326;28;20034;-78
2023/05/18 11:07:34;;;;;;;6.60;3.58;;;24.40;36.90;;;;;;5017019;28;20049;-78
2023/05/18 11:10:08;;;;;;;9.00;3.40;;;24.40;36.40;;;;;;4987408;28;20030;-78
2023/05/18 11:12:37;;;;;;;8.20;3.63;;;24.30;37.10;;;;;;5036809;28;20463;-79
2023/05/18 11:15:04;;;;;;;8.50;3.55;;;24.30;36.20;;;;;;5018853;28;20040;-79
2023/05/18 11:17:30;;;;;;;8.38;2.97;;;24.30;37.10;;;;;;5027958;28;20030;-78
2023/05/18 11:20:07;;;;;;;7.90;3.63;;;24.30;36.80;;;;;;4997178;28;20448;-78
2023/05/18 11:22:46;;;;;;;10.93;3.90;;;24.40;37.00;;;;;;4997379;28;20030;-78
2023/05/18 11:25:26;;;;;;;8.73;3.00;;;24.40;36.50;;;;;;4996957;28;20034;-78
2023/05/18 11:28:01;;;;;;;7.40;3.55;;;24.40;37.50;;;;;;4979532;28;20027;-78
2023/05/18 11:30:27;;;;;;;9.68;3.97;;;24.50;37.40;;;;;;5012821;28;20050;-78
2023/05/18 11:33:10;;;;;;;8.60;3.53;;;24.40;37.10;;;;;;5016450;28;20129;-78
2023/05/18 11:36:01;;;;;;;7.57;3.35;;;24.30;37.30;;;;;;5016030;28;20026;-78
2023/05/18 11:38:49;;;;;;;5.82;3.22;;;24.20;37.50;;;;;;4997623;28;20032;-78
2023/05/18 11:41:31;;;;;;;7.22;4.00;;;24.20;37.20;;;;;;4996889;28;20038;-78
2023/05/18 11:44:08;;;;;;;8.15;3.65;;;24.20;37.60;;;;;;4997024;28;20030;-78
2023/05/18 11:46:35;;;;;;;8.48;4.18;;;24.00;37.80;;;;;;4996405;28;20026;-78
2023/05/18 11:49:03;;;;;;;8.32;4.88;;;24.10;38.20;;;;;;4996707;28;20026;-78
2023/05/18 11:51:31;;;;;;;8.38;3.92;;;24.10;38.60;;;;;;4996936;28;20026;-78
2023/05/18 11:53:58;;;;;;;9.43;4.25;;;24.10;38.50;;;;;;4996782;28;20098;-78
2023/05/18 11:56:25;;;;;;;6.95;4.13;;;24.20;38.30;;;;;;4996451;28;20496;-78
2023/05/18 11:59:12;;;;;;;7.70;3.70;;;24.30;37.60;;;;;;4978983;28;20034;-78
2023/05/18 12:01:41;;;;;;;10.55;3.88;;;24.30;38.70;;;;;;5012914;28;20037;-78
2023/05/18 12:04:08;;;;;;;6.47;3.60;;;24.40;38.70;;;;;;5016176;28;20022;-78
2023/05/18 12:06:35;;;;;;;6.35;3.42;;;24.30;38.80;;;;;;5013114;28;20037;-78
2023/05/18 12:09:03;;;;;;;10.55;3.63;;;24.30;38.80;;;;;;5010232;28;20022;-78
2023/05/18 12:11:30;;;;;;;8.45;3.47;;;24.40;39.00;;;;;;5021767;28;20488;-79
2023/05/18 12:13:56;;;;;;;7.25;4.00;;;24.40;39.20;;;;;;5035806;28;20022;-78
2023/05/18 12:16:24;;;;;;;6.95;3.40;;;24.50;38.80;;;;;;5002681;28;20039;-78
2023/05/18 12:18:50;;;;;;;6.78;4.18;;;24.60;39.50;;;;;;4995867;28;20050;-78
2023/05/18 12:21:23;;;;;;;6.82;3.83;;;24.30;38.30;;;;;;4996157;28;20077;-78
2023/05/18 12:23:59;;;;;;;12.35;4.95;;;24.10;38.90;;;;;;4996534;28;20061;-78
2023/05/18 12:26:24;;;;;;;8.10;4.20;;;23.80;38.70;;;;;;4996309;28;20081;-78
2023/05/18 12:29:00;;;;;;;11.55;4.43;;;23.70;39.70;;;;;;4996368;28;20030;-78
2023/05/18 12:31:26;;;;;;;11.00;4.40;;;23.60;40.40;;;;;;5002983;28;20065;-78
2023/05/18 12:33:55;;;;;;;9.88;4.30;;;23.70;40.20;;;;;;4997857;28;20033;-78
2023/05/18 12:36:21;;;;;;;8.15;4.00;;;23.70;39.90;;;;;;5009147;28;20054;-78
2023/05/18 12:38:49;;;;;;;6.28;3.83;;;23.90;39.50;;;;;;4996157;28;20100;-78
2023/05/18 12:41:22;;;;;;;9.13;3.97;;;23.90;39.30;;;;;;4996043;28;20118;-78
2023/05/18 12:43:48;;;;;;;7.57;3.92;;;24.00;38.80;;;;;;4996100;28;20049;-78
2023/05/18 12:46:14;;;;;;;7.38;4.03;;;23.90;39.70;;;;;;4995843;28;20026;-78
2023/05/18 12:48:48;;;;;;;6.80;3.78;;;23.80;39.20;;;;;;4996033;28;20496;-78
2023/05/18 12:51:18;;;;;;;8.88;3.70;;;23.70;38.70;;;;;;4995973;28;20358;-78
2023/05/18 12:53:44;;;;;;;10.27;4.03;;;23.50;39.10;;;;;;4996247;28;20507;-78
2023/05/18 12:56:11;;;;;;;9.30;3.75;;;23.40;39.90;;;;;;4995851;28;20171;-78
2023/05/18 12:58:39;;;;;;;11.90;3.83;;;23.30;40.40;;;;;;4996083;28;20031;-78
2023/05/18 13:01:09;;;;;;;7.30;3.88;;;23.30;41.20;;;;;;4978251;28;20460;-78
2023/05/18 13:03:39;;;;;;;7.97;4.30;;;23.20;41.50;;;;;;5005837;28;20113;-78
2023/05/18 13:06:06;;;;;;;9.02;3.92;;;23.10;41.80;;;;;;5007750;28;20034;-78
2023/05/18 13:08:33;;;;;;;7.53;4.03;;;23.00;42.00;;;;;;4995906;28;20037;-78
2023/05/18 13:11:03;;;;;;;9.40;3.83;;;22.90;41.80;;;;;;5009988;28;20026;-78
2023/05/18 13:13:29;;;;;;;11.60;5.00;;;22.90;42.10;;;;;;5015384;28;20030;-78
2023/05/18 13:15:58;;;;;;;12.45;4.15;;;23.00;41.90;;;;;;4996709;28;20112;-78
2023/05/18 13:18:24;;;;;;;9.52;4.25;;;23.00;42.30;;;;;;4995593;28;20046;-78
2023/05/18 13:20:52;;;;;;;8.75;3.78;;;23.20;42.60;;;;;;4995897;28;20030;-78
2023/05/18 13:23:20;;;;;;;7.75;3.88;;;23.20;42.50;;;;;;4995206;28;20034;-78
2023/05/18 13:25:46;;;;;;;8.30;4.30;;;23.20;42.10;;;;;;4994373;28;20495;-78
2023/05/18 13:28:14;;;;;;;11.18;4.25;;;23.20;41.90;;;;;;4995767;28;20034;-78
2023/05/18 13:30:41;;;;;;;8.77;4.07;;;23.10;42.10;;;;;;4995379;28;20096;-78
2023/05/18 13:33:07;;;;;;;5.50;3.88;;;23.10;43.00;;;;;;5004702;28;20029;-78
2023/05/18 13:35:37;;;;;;;8.43;3.65;;;23.10;42.50;;;;;;5000176;28;20030;-78
2023/05/18 13:38:03;;;;;;;10.13;4.35;;;23.20;42.40;;;;;;4997713;28;20066;-78
2023/05/18 13:40:28;;;;;;;7.20;3.88;;;23.20;41.30;;;;;;5001613;28;20413;-78
2023/05/18 13:42:54;;;;;;;8.27;4.15;;;23.20;42.30;;;;;;5018670;28;20060;-78
2023/05/18 13:45:20;;;;;;;7.03;4.03;;;23.20;42.10;;;;;;5008300;28;20023;-78
2023/05/18 13:47:49;;;;;;;8.77;4.03;;;23.10;42.10;;;;;;4997630;28;20121;-78
2023/05/18 13:50:16;;;;;;;10.37;4.33;;;22.90;42.30;;;;;;4998876;28;20019;-78
2023/05/18 13:52:42;;;;;;;9.32;4.35;;;22.80;43.30;;;;;;4996488;28;20426;-78
2023/05/18 13:55:07;;;;;;;9.55;3.53;;;22.80;43.30;;;;;;4998700;28;20497;-78
2023/05/18 13:57:34;;;;;;;9.60;4.13;;;22.80;43.60;;;;;;4998650;28;20094;-78
2023/05/18 14:00:02;;;;;;;9.68;4.10;;;22.90;43.40;;;;;;4998753;28;20034;-79
2023/05/18 14:02:29;;;;;;;7.35;3.78;;;23.00;43.30;;;;;;4999824;28;20030;-78
2023/05/18 14:04:55;;;;;;;9.02;4.10;;;23.00;43.30;;;;;;5003549;28;20042;-78
2023/05/18 14:07:23;;;;;;;8.25;4.05;;;23.00;43.50;;;;;;5001770;28;20104;-79
2023/05/18 14:09:49;;;;;;;10.10;4.32;;;22.90;43.50;;;;;;5018138;28;20018;-78
2023/05/18 14:12:14;;;;;;;11.25;4.03;;;22.90;43.20;;;;;;5016874;28;20025;-78
2023/05/18 14:14:42;;;;;;;12.13;3.88;;;22.80;43.60;;;;;;4998456;28;20029;-78
2023/05/18 14:17:08;;;;;;;9.27;4.43;;;22.70;43.80;;;;;;4998304;28;20022;-78
2023/05/18 14:19:34;;;;;;;8.40;4.00;;;22.70;44.20;;;;;;4997981;28;20044;-78
2023/05/18 14:22:00;;;;;;;10.07;4.28;;;22.50;44.50;;;;;;4998519;28;20018;-78
2023/05/18 14:24:26;;;;;;;7.97;4.45;;;22.50;44.30;;;;;;4998215;28;20415;-78
2023/05/18 14:26:52;;;;;;;7.55;4.32;;;22.60;44.40;;;;;;4998112;28;20027;-78
2023/05/18 14:29:19;;;;;;;10.00;4.60;;;22.70;44.70;;;;;;4996948;28;20449;-78
2023/05/18 14:31:45;;;;;;;10.20;3.63;;;22.80;44.40;;;;;;5015439;28;20125;-78
2023/05/18 14:34:11;;;;;;;12.00;4.05;;;23.00;44.50;;;;;;5017530;28;20731;-78
2023/05/18 14:36:36;;;;;;;10.07;4.68;;;23.20;43.90;;;;;;5017651;28;20033;-78
2023/05/18 14:39:03;;;;;;;13.18;4.40;;;23.30;43.40;;;;;;5000004;28;20061;-78
2023/05/18 14:41:29;;;;;;;12.52;4.55;;;23.20;43.60;;;;;;5000779;28;20058;-78
2023/05/18 14:43:55;;;;;;;8.60;4.45;;;23.10;43.90;;;;;;4997608;28;20045;-78
2023/05/18 14:46:20;;;;;;;10.13;4.28;;;23.20;43.90;;;;;;4980074;28;20150;-78
2023/05/18 14:48:46;;;;;;;6.25;4.25;;;23.30;43.30;;;;;;5017039;28;20037;-78
2023/05/18 14:51:12;;;;;;;8.10;4.28;;;23.40;43.20;;;;;;5017517;28;20022;-78
2023/05/18 14:53:38;;;;;;;7.10;3.90;;;23.40;43.90;;;;;;5017310;28;20029;-78
2023/05/18 14:56:07;;;;;;;8.85;4.68;;;23.20;44.00;;;;;;4998444;28;20037;-78
2023/05/18 14:58:33;;;;;;;9.75;4.07;;;22.80;43.80;;;;;;4997755;28;20607;-78
2023/05/18 15:00:59;;;;;;;10.52;4.72;;;22.60;44.40;;;;;;4980074;28;20030;-78
2023/05/18 15:03:24;;;;;;;8.48;4.65;;;22.30;44.80;;;;;;5006119;28;20121;-78
2023/05/18 15:05:50;;;;;;;11.63;4.82;;;22.20;45.30;;;;;;5016990;28;20838;-78
2023/05/18 15:08:16;;;;;;;9.20;4.45;;;22.00;46.30;;;;;;4998244;28;20054;-78
2023/05/18 15:10:41;;;;;;;8.75;4.03;;;21.90;46.40;;;;;;5004185;28;20469;-78
2023/05/18 15:13:07;;;;;;;8.02;4.10;;;21.90;46.70;;;;;;5009037;28;20026;-78
2023/05/18 15:15:33;;;;;;;8.57;4.47;;;21.90;47.30;;;;;;4997448;28;20165;-78
2023/05/18 15:17:58;;;;;;;9.40;4.13;;;21.90;47.10;;;;;;4997288;28;20022;-78
2023/05/18 15:20:25;;;;;;;10.73;4.07;;;22.00;47.00;;;;;;4996850;28;20026;-79
2023/05/18 15:22:51;;;;;;;6.75;4.00;;;22.00;47.20;;;;;;4979856;28;20030;-79
2023/05/18 15:25:17;;;;;;;10.27;4.40;;;22.00;47.30;;;;;;4997364;28;20061;-79
2023/05/18 15:27:43;;;;;;;10.90;4.18;;;22.20;47.40;;;;;;4997021;28;20022;-79
2023/05/18 15:30:12;;;;;;;6.15;3.80;;;22.10;47.50;;;;;;4996814;28;20030;-79
2023/05/18 15:32:38;;;;;;;8.05;4.40;;;22.20;47.20;;;;;;4999059;28;20050;-79
2023/05/18 15:35:04;;;;;;;12.35;4.45;;;22.30;46.80;;;;;;5015957;28;20041;-79
2023/05/18 15:37:30;;;;;;;8.20;3.88;;;22.30;46.80;;;;;;5016656;28;20022;-79
2023/05/18 15:39:56;;;;;;;8.00;4.57;;;22.30;46.40;;;;;;5016512;28;20033;-79
2023/05/18 15:42:21;;;;;;;7.70;3.42;;;22.30;45.00;;;;;;4999154;28;20033;-79
2023/05/18 15:44:47;;;;;;;8.68;4.05;;;22.30;44.50;;;;;;4979188;28;20054;-79
2023/05/18 15:47:13;;;;;;;10.77;4.22;;;22.40;44.60;;;;;;4995088;28;20393;-80
2023/05/18 15:49:38;;;;;;;9.38;4.88;;;22.30;44.40;;;;;;5000535;28;20025;-79
2023/05/18 15:52:04;;;;;;;9.80;4.43;;;22.30;44.50;;;;;;5016392;28;20036;-79
2023/05/18 15:54:30;;;;;;;12.10;4.47;;;22.30;44.80;;;;;;5014272;28;20053;-79
2023/05/18 15:56:56;;;;;;;11.60;4.18;;;22.30;45.20;;;;;;4996728;28;20038;-79
2023/05/18 15:59:21;;;;;;;7.57;4.10;;;22.50;45.20;;;;;;4996560;28;20035;-79
2023/05/18 16:01:47;;;;;;;8.07;3.70;;;22.60;44.90;;;;;;4997133;28;20033;-79
2023/05/18 16:04:13;;;;;;;4.70;2.92;;;22.50;44.30;;;;;;4996719;28;20034;-79
2023/05/18 16:06:38;;;;;;;6.38;3.28;;;22.30;43.00;;;;;;4996365;28;20037;-79
2023/05/18 16:09:04;;;;;;;6.97;3.10;;;22.00;42.90;;;;;;4996455;28;20524;-79
2023/05/18 16:11:29;;;;;;;8.52;3.70;;;21.90;43.40;;;;;;5011232;28;20026;-78
2023/05/18 16:13:55;;;;;;;7.55;3.60;;;21.90;43.90;;;;;;5002286;28;20086;-79
2023/05/18 16:16:21;;;;;;;7.65;3.00;;;21.80;43.80;;;;;;4996371;28;20109;-79
2023/05/18 16:18:48;;;;;;;9.88;3.67;;;21.60;43.50;;;;;;4996283;28;20138;-79
2023/05/18 16:21:17;;;;;;;6.88;3.15;;;21.40;43.90;;;;;;4996427;28;20506;-79
2023/05/18 16:23:44;;;;;;;4.75;3.10;;;21.20;44.00;;;;;;4995742;28;20097;-79
2023/05/18 16:26:10;;;;;;;7.38;2.97;;;21.20;43.50;;;;;;5015650;28;20048;-79
2023/05/18 16:28:36;;;;;;;5.40;3.10;;;21.30;43.60;;;;;;4998330;28;20061;-79
2023/05/18 16:31:06;;;;;;;6.65;3.13;;;21.30;43.40;;;;;;4997797;28;20125;-79
2023/05/18 16:33:39;;;;;;;7.60;3.28;;;21.40;43.20;;;;;;4997110;28;20038;-77
2023/05/18 16:36:05;;;;;;;5.97;2.92;;;21.50;42.70;;;;;;4997867;28;20081;-78
2023/05/18 16:38:34;;;;;;;5.38;2.78;;;21.60;42.60;;;;;;4994700;28;20049;-78
2023/05/18 16:41:01;;;;;;;6.53;3.08;;;21.60;42.10;;;;;;4996119;28;20062;-78
2023/05/18 16:43:26;;;;;;;6.45;2.70;;;21.60;41.50;;;;;;4996121;28;20038;-77
2023/05/18 16:45:52;;;;;;;3.92;2.40;;;21.50;41.30;;;;;;4995709;28;20034;-78
2023/05/18 16:48:18;;;;;;;6.88;2.67;;;21.50;40.60;;;;;;4996163;28;20026;-78
2023/05/18 16:50:43;;;;;;;8.93;2.95;;;21.40;41.00;;;;;;4995834;28;20036;-78
2023/05/18 16:53:09;;;;;;;5.63;2.63;;;21.30;40.60;;;;;;4996206;28;20019;-78
2023/05/18 16:55:35;;;;;;;8.57;2.60;;;21.40;41.10;;;;;;4987628;28;20606;-78
2023/05/18 16:58:01;;;;;;;7.03;3.20;;;21.40;40.60;;;;;;4996189;28;20030;-78
2023/05/18 17:00:27;;;;;;;7.28;2.70;;;21.30;41.20;;;;;;4995871;28;20042;-78
2023/05/18 17:02:52;;;;;;;6.80;2.55;;;21.30;41.10;;;;;;4996017;28;20086;-77
2023/05/18 17:05:21;;;;;;;6.90;2.78;;;21.20;40.80;;;;;;4996126;28;20037;-77
2023/05/18 17:07:48;;;;;;;4.40;2.42;;;21.10;40.60;;;;;;4999723;28;20062;-77
2023/05/18 17:10:14;;;;;;;6.10;2.55;;;21.10;41.20;;;;;;5004626;28;20057;-77
2023/05/18 17:12:40;;;;;;;5.03;2.22;;;21.00;41.40;;;;;;5015006;28;20866;-77
2023/05/18 17:15:06;;;;;;;3.95;2.45;;;21.00;41.50;;;;;;5003090;28;20405;-77